sensor_id;sensor_type;location;lat;lon;timestamp;pressure;altitude;pressure_sealevel;temperature;humidity
73981;BME280;62348;51.412;5.436;2023-03-25T00:00:15;100135.19;;;8.37;87.69
73981;BME280;62348;51.412;5.436;2023-03-25T00:02:44;100140.03;;;8.40;87.52
73981;BME280;62348;51.412;5.436;2023-03-25T00:05:12;100134.66;;;8.40;86.93
73981;BME280;62348;51.412;5.436;2023-03-25T00:07:39;100135.47;;;8.40;86.60
73981;BME280;62348;51.412;5.436;2023-03-25T00:10:07;100141.44;;;8.43;85.93
73981;BME280;62348;51.412;5.436;2023-03-25T00:12:33;100150.06;;;8.45;85.81
73981;BME280;62348;51.412;5.436;2023-03-25T00:14:58;100143.59;;;8.46;85.77
73981;BME280;62348;51.412;5.436;2023-03-25T00:17:25;100134.44;;;8.47;85.86
73981;BME280;62348;51.412;5.436;2023-03-25T00:19:53;100142.28;;;8.48;85.40
73981;BME280;62348;51.412;5.436;2023-03-25T00:22:20;100145.78;;;8.49;85.07
73981;BME280;62348;51.412;5.436;2023-03-25T00:24:45;100130.66;;;8.48;85.63
73981;BME280;62348;51.412;5.436;2023-03-25T00:27:11;100112.91;;;8.47;85.10
73981;BME280;62348;51.412;5.436;2023-03-25T00:29:39;100129.06;;;8.47;84.30
73981;BME280;62348;51.412;5.436;2023-03-25T00:32:04;100125.56;;;8.46;84.43
73981;BME280;62348;51.412;5.436;2023-03-25T00:34:30;100126.88;;;8.44;85.17
73981;BME280;62348;51.412;5.436;2023-03-25T00:36:55;100120.69;;;8.43;85.14
73981;BME280;62348;51.412;5.436;2023-03-25T00:39:21;100119.91;;;8.43;85.31
73981;BME280;62348;51.412;5.436;2023-03-25T00:41:46;100119.91;;;8.43;85.49
73981;BME280;62348;51.412;5.436;2023-03-25T00:44:12;100125.00;;;8.44;85.66
73981;BME280;62348;51.412;5.436;2023-03-25T00:46:38;100123.66;;;8.42;85.87
73981;BME280;62348;51.412;5.436;2023-03-25T00:49:04;100127.97;;;8.43;85.38
73981;BME280;62348;51.412;5.436;2023-03-25T00:51:29;100117.75;;;8.45;85.46
73981;BME280;62348;51.412;5.436;2023-03-25T00:53:58;100123.13;;;8.45;85.14
73981;BME280;62348;51.412;5.436;2023-03-25T00:56:28;100136.88;;;8.43;85.58
73981;BME280;62348;51.412;5.436;2023-03-25T00:58:54;100111.53;;;8.44;85.21
73981;BME280;62348;51.412;5.436;2023-03-25T01:01:23;100121.75;;;8.42;85.36
73981;BME280;62348;51.412;5.436;2023-03-25T01:03:52;100115.56;;;8.42;84.75
73981;BME280;62348;51.412;5.436;2023-03-25T01:06:34;100115.56;;;8.42;85.06
73981;BME280;62348;51.412;5.436;2023-03-25T01:09:02;100121.75;;;8.42;84.46
73981;BME280;62348;51.412;5.436;2023-03-25T01:11:31;100119.31;;;8.40;85.61
73981;BME280;62348;51.412;5.436;2023-03-25T01:13:59;100134.66;;;8.40;84.90
73981;BME280;62348;51.412;5.436;2023-03-25T01:16:25;100120.63;;;8.38;84.93
73981;BME280;62348;51.412;5.436;2023-03-25T01:18:51;100112.56;;;8.38;84.03
73981;BME280;62348;51.412;5.436;2023-03-25T01:21:17;100120.91;;;8.36;84.86
73981;BME280;62348;51.412;5.436;2023-03-25T01:23:43;100107.16;;;8.33;84.55
73981;BME280;62348;51.412;5.436;2023-03-25T01:26:09;100111.19;;;8.30;84.79
73981;BME280;62348;51.412;5.436;2023-03-25T01:28:34;100104.19;;;8.29;84.79
73981;BME280;62348;51.412;5.436;2023-03-25T01:31:05;100114.69;;;8.26;84.38
73981;BME280;62348;51.412;5.436;2023-03-25T01:33:31;100105.50;;;8.27;84.47
73981;BME280;62348;51.412;5.436;2023-03-25T01:35:57;100108.75;;;8.24;84.83
73981;BME280;62348;51.412;5.436;2023-03-25T01:38:22;100113.03;;;8.19;84.58
73981;BME280;62348;51.412;5.436;2023-03-25T01:40:49;100116.78;;;8.18;84.47
73981;BME280;62348;51.412;5.436;2023-03-25T01:43:15;100107.09;;;8.17;84.45
73981;BME280;62348;51.412;5.436;2023-03-25T01:45:43;100111.13;;;8.15;84.35
73981;BME280;62348;51.412;5.436;2023-03-25T01:48:15;100106.53;;;8.15;84.77
73981;BME280;62348;51.412;5.436;2023-03-25T01:50:45;100101.69;;;8.12;84.80
73981;BME280;62348;51.412;5.436;2023-03-25T01:53:13;100109.50;;;8.14;85.42
73981;BME280;62348;51.412;5.436;2023-03-25T01:55:42;100108.69;;;8.13;84.61
73981;BME280;62348;51.412;5.436;2023-03-25T01:58:10;100109.50;;;8.14;85.13
73981;BME280;62348;51.412;5.436;2023-03-25T02:00:42;100109.78;;;8.12;85.19
73981;BME280;62348;51.412;5.436;2023-03-25T02:03:10;100108.94;;;8.12;85.64
73981;BME280;62348;51.412;5.436;2023-03-25T02:08:06;100108.69;;;8.13;85.72
73981;BME280;62348;51.412;5.436;2023-03-25T02:10:34;100110.31;;;8.14;85.65
73981;BME280;62348;51.412;5.436;2023-03-25T02:13:00;100104.13;;;8.14;85.63
73981;BME280;62348;51.412;5.436;2023-03-25T02:15:30;100099.81;;;8.13;85.34
73981;BME280;62348;51.412;5.436;2023-03-25T02:21:08;100107.63;;;8.14;85.47
73981;BME280;62348;51.412;5.436;2023-03-25T02:26:44;100096.31;;;8.12;85.60
73981;BME280;62348;51.412;5.436;2023-03-25T02:43:57;100095.22;;;8.08;86.93
73981;BME280;62348;51.412;5.436;2023-03-25T02:46:27;100096.28;;;8.07;87.25
73981;BME280;62348;51.412;5.436;2023-03-25T02:48:59;100091.94;;;8.06;87.63
73981;BME280;62348;51.412;5.436;2023-03-25T02:51:35;100093.28;;;8.04;87.41
73981;BME280;62348;51.412;5.436;2023-03-25T02:54:06;100097.06;;;8.02;87.78
73981;BME280;62348;51.412;5.436;2023-03-25T02:56:36;100093.56;;;8.02;88.31
73981;BME280;62348;51.412;5.436;2023-03-25T02:59:03;100087.63;;;8.00;88.00
73981;BME280;62348;51.412;5.436;2023-03-25T03:01:29;100083.59;;;7.97;88.10
73981;BME280;62348;51.412;5.436;2023-03-25T03:03:59;100092.47;;;7.98;88.70
73981;BME280;62348;51.412;5.436;2023-03-25T03:06:25;100080.88;;;7.97;88.41
73981;BME280;62348;51.412;5.436;2023-03-25T03:08:55;100086.00;;;7.99;88.49
73981;BME280;62348;51.412;5.436;2023-03-25T03:14:27;100076.06;;;7.99;88.26
73981;BME280;62348;51.412;5.436;2023-03-25T03:19:48;100073.06;;;7.96;87.58
73981;BME280;62348;51.412;5.436;2023-03-25T03:25:09;100073.63;;;7.98;87.47
73981;BME280;62348;51.412;5.436;2023-03-25T03:27:50;100084.09;;;7.94;87.32
73981;BME280;62348;51.412;5.436;2023-03-25T03:30:28;100083.03;;;7.95;87.26
73981;BME280;62348;51.412;5.436;2023-03-25T03:33:32;100086.56;;;8.01;87.24
73981;BME280;62348;51.412;5.436;2023-03-25T03:36:03;100083.03;;;7.95;87.40
73981;BME280;62348;51.412;5.436;2023-03-25T03:38:36;100074.41;;;7.98;87.14
73981;BME280;62348;51.412;5.436;2023-03-25T03:41:11;100080.88;;;7.97;87.25
73981;BME280;62348;51.412;5.436;2023-03-25T03:44:00;100079.28;;;8.01;86.55
73981;BME280;62348;51.412;5.436;2023-03-25T03:46:37;100073.34;;;7.99;87.39
73981;BME280;62348;51.412;5.436;2023-03-25T03:49:08;100075.25;;;7.99;88.47
73981;BME280;62348;51.412;5.436;2023-03-25T03:51:38;100081.41;;;7.94;88.49
73981;BME280;62348;51.412;5.436;2023-03-25T03:54:30;100084.63;;;7.96;88.74
73981;BME280;62348;51.412;5.436;2023-03-25T03:57:07;100094.56;;;7.91;89.46
73981;BME280;62348;51.412;5.436;2023-03-25T04:02:53;100081.34;;;7.84;89.44
73981;BME280;62348;51.412;5.436;2023-03-25T04:05:21;100094.53;;;7.80;90.19
73981;BME280;62348;51.412;5.436;2023-03-25T04:08:03;100084.81;;;7.79;90.17
73981;BME280;62348;51.412;5.436;2023-03-25T04:10:57;100091.84;;;7.80;90.24
73981;BME280;62348;51.412;5.436;2023-03-25T04:13:28;100076.47;;;7.76;90.63
73981;BME280;62348;51.412;5.436;2023-03-25T04:15:57;100082.13;;;7.74;90.77
73981;BME280;62348;51.412;5.436;2023-03-25T04:18:24;100081.03;;;7.75;90.62
73981;BME280;62348;51.412;5.436;2023-03-25T04:20:49;100089.94;;;7.76;90.48
73981;BME280;62348;51.412;5.436;2023-03-25T04:23:15;100088.31;;;7.75;90.28
73981;BME280;62348;51.412;5.436;2023-03-25T04:25:44;100092.06;;;7.74;90.13
73981;BME280;62348;51.412;5.436;2023-03-25T04:28:19;100088.81;;;7.72;89.72
73981;BME280;62348;51.412;5.436;2023-03-25T04:30:45;100099.31;;;7.73;89.43
73981;BME280;62348;51.412;5.436;2023-03-25T04:33:11;100093.13;;;7.73;89.55
73981;BME280;62348;51.412;5.436;2023-03-25T04:35:38;100094.19;;;7.72;89.51
73981;BME280;62348;51.412;5.436;2023-03-25T04:38:05;100088.00;;;7.71;90.06
73981;BME280;62348;51.412;5.436;2023-03-25T04:40:30;100082.88;;;7.70;90.54
73981;BME280;62348;51.412;5.436;2023-03-25T04:42:57;100076.94;;;7.68;90.98
73981;BME280;62348;51.412;5.436;2023-03-25T04:45:23;100080.72;;;7.67;91.39
73981;BME280;62348;51.412;5.436;2023-03-25T04:47:50;100091.75;;;7.65;90.91
73981;BME280;62348;51.412;5.436;2023-03-25T04:50:28;100082.03;;;7.64;91.08
73981;BME280;62348;51.412;5.436;2023-03-25T04:52:55;100076.66;;;7.64;90.83
73981;BME280;62348;51.412;5.436;2023-03-25T04:55:25;100079.59;;;7.62;91.19
73981;BME280;62348;51.412;5.436;2023-03-25T04:57:52;100081.22;;;7.63;91.50
73981;BME280;62348;51.412;5.436;2023-03-25T05:00:22;100085.56;;;7.65;91.41
73981;BME280;62348;51.412;5.436;2023-03-25T05:02:50;100079.88;;;7.61;91.25
73981;BME280;62348;51.412;5.436;2023-03-25T05:05:18;100076.38;;;7.60;90.95
73981;BME280;62348;51.412;5.436;2023-03-25T05:07:47;100072.88;;;7.60;90.65
73981;BME280;62348;51.412;5.436;2023-03-25T05:10:16;100082.03;;;7.64;90.38
73981;BME280;62348;51.412;5.436;2023-03-25T05:12:41;100070.72;;;7.62;90.88
73981;BME280;62348;51.412;5.436;2023-03-25T05:15:09;100069.94;;;7.61;89.77
73981;BME280;62348;51.412;5.436;2023-03-25T05:17:34;100068.84;;;7.62;89.78
73981;BME280;62348;51.412;5.436;2023-03-25T05:20:00;100078.81;;;7.62;89.06
73981;BME280;62348;51.412;5.436;2023-03-25T05:22:25;100087.16;;;7.66;89.60
73981;BME280;62348;51.412;5.436;2023-03-25T05:24:51;100092.00;;;7.63;89.46
73981;BME280;62348;51.412;5.436;2023-03-25T05:27:18;100082.56;;;7.61;90.08
73981;BME280;62348;51.412;5.436;2023-03-25T05:29:45;100081.50;;;7.62;90.30
73981;BME280;62348;51.412;5.436;2023-03-25T05:32:11;100080.69;;;7.61;89.38
73981;BME280;62348;51.412;5.436;2023-03-25T05:34:45;100082.56;;;7.61;89.74
73981;BME280;62348;51.412;5.436;2023-03-25T05:37:13;100098.72;;;7.61;89.39
73981;BME280;62348;51.412;5.436;2023-03-25T05:39:39;100096.03;;;7.61;89.00
73981;BME280;62348;51.412;5.436;2023-03-25T05:42:05;100096.31;;;7.65;88.07
73981;BME280;62348;51.412;5.436;2023-03-25T05:44:30;100100.06;;;7.63;88.42
73981;BME280;62348;51.412;5.436;2023-03-25T05:46:56;100099.00;;;7.65;88.56
73981;BME280;62348;51.412;5.436;2023-03-25T05:49:25;100115.97;;;7.65;88.54
73981;BME280;62348;51.412;5.436;2023-03-25T05:51:50;100116.75;;;7.66;88.12
73981;BME280;62348;51.412;5.436;2023-03-25T05:54:18;100112.72;;;7.68;87.78
73981;BME280;62348;51.412;5.436;2023-03-25T05:56:43;100113.56;;;7.69;87.55
73981;BME280;62348;51.412;5.436;2023-03-25T05:59:11;100114.38;;;7.69;87.60
73981;BME280;62348;51.412;5.436;2023-03-25T06:01:38;100110.88;;;7.69;87.64
73981;BME280;62348;51.412;5.436;2023-03-25T06:04:06;100114.38;;;7.69;87.15
73981;BME280;62348;51.412;5.436;2023-03-25T06:06:34;100114.38;;;7.69;87.13
73981;BME280;62348;51.412;5.436;2023-03-25T06:09:01;100122.44;;;7.69;86.68
73981;BME280;62348;51.412;5.436;2023-03-25T06:11:27;100119.25;;;7.72;86.63
73981;BME280;62348;51.412;5.436;2023-03-25T06:13:52;100121.38;;;7.70;86.07
73981;BME280;62348;51.412;5.436;2023-03-25T06:16:19;100122.19;;;7.71;86.28
73981;BME280;62348;51.412;5.436;2023-03-25T06:18:47;100111.41;;;7.71;86.38
73981;BME280;62348;51.412;5.436;2023-03-25T06:21:20;100128.63;;;7.70;86.07
73981;BME280;62348;51.412;5.436;2023-03-25T06:23:47;100124.06;;;7.70;85.96
73981;BME280;62348;51.412;5.436;2023-03-25T06:26:14;100132.94;;;7.71;86.16
73981;BME280;62348;51.412;5.436;2023-03-25T06:28:40;100124.88;;;7.71;86.42
73981;BME280;62348;51.412;5.436;2023-03-25T06:31:20;100135.94;;;7.74;86.06
73981;BME280;62348;51.412;5.436;2023-03-25T06:33:48;100124.63;;;7.72;85.71
73981;BME280;62348;51.412;5.436;2023-03-25T06:36:15;100118.16;;;7.73;85.64
73981;BME280;62348;51.412;5.436;2023-03-25T06:38:43;100120.59;;;7.75;85.49
73981;BME280;62348;51.412;5.436;2023-03-25T06:41:10;100131.34;;;7.75;85.40
73981;BME280;62348;51.412;5.436;2023-03-25T06:43:36;100141.06;;;7.76;86.18
73981;BME280;62348;51.412;5.436;2023-03-25T06:46:02;100139.19;;;7.76;85.51
73981;BME280;62348;51.412;5.436;2023-03-25T06:48:28;100147.56;;;7.80;85.66
73981;BME280;62348;51.412;5.436;2023-03-25T06:50:53;100140.28;;;7.80;85.72
73981;BME280;62348;51.412;5.436;2023-03-25T06:53:19;100151.09;;;7.86;85.72
73981;BME280;62348;51.412;5.436;2023-03-25T06:55:44;100140.88;;;7.88;85.59
73981;BME280;62348;51.412;5.436;2023-03-25T06:58:11;100144.09;;;7.90;85.61
73981;BME280;62348;51.412;5.436;2023-03-25T07:00:37;100146.53;;;7.91;84.59
73981;BME280;62348;51.412;5.436;2023-03-25T07:03:02;100140.88;;;7.93;85.24
73981;BME280;62348;51.412;5.436;2023-03-25T07:05:28;100151.38;;;7.94;84.65
73981;BME280;62348;51.412;5.436;2023-03-25T07:07:53;100138.19;;;7.93;84.84
73981;BME280;62348;51.412;5.436;2023-03-25T07:10:19;100149.25;;;7.96;85.21
73981;BME280;62348;51.412;5.436;2023-03-25T07:12:44;100143.34;;;7.99;84.46
73981;BME280;62348;51.412;5.436;2023-03-25T07:15:10;100143.91;;;8.01;84.86
73981;BME280;62348;51.412;5.436;2023-03-25T07:17:36;100151.19;;;8.06;85.12
73981;BME280;62348;51.412;5.436;2023-03-25T07:20:04;100149.34;;;8.12;84.26
73981;BME280;62348;51.412;5.436;2023-03-25T07:22:30;100146.44;;;8.24;84.62
73981;BME280;62348;51.412;5.436;2023-03-25T07:24:56;100152.69;;;8.34;84.32
73981;BME280;62348;51.412;5.436;2023-03-25T07:27:23;100146.53;;;8.44;84.12
73981;BME280;62348;51.412;5.436;2023-03-25T07:29:48;100144.69;;;8.50;83.99
73981;BME280;62348;51.412;5.436;2023-03-25T07:32:13;100143.63;;;8.51;84.19
73981;BME280;62348;51.412;5.436;2023-03-25T07:34:42;100148.72;;;8.47;84.37
73981;BME280;62348;51.412;5.436;2023-03-25T07:37:07;100158.41;;;8.43;85.17
73981;BME280;62348;51.412;5.436;2023-03-25T07:39:33;100172.13;;;8.42;85.79
73981;BME280;62348;51.412;5.436;2023-03-25T07:41:58;100156.50;;;8.38;86.62
73981;BME280;62348;51.412;5.436;2023-03-25T07:44:24;100155.38;;;8.34;86.09
73981;BME280;62348;51.412;5.436;2023-03-25T07:46:49;100165.84;;;8.31;86.13
73981;BME280;62348;51.412;5.436;2023-03-25T07:49:16;100160.72;;;8.24;86.86
73981;BME280;62348;51.412;5.436;2023-03-25T07:51:43;100176.34;;;8.22;87.24
73981;BME280;62348;51.412;5.436;2023-03-25T07:54:09;100156.94;;;8.20;86.74
73981;BME280;62348;51.412;5.436;2023-03-25T07:56:34;100161.78;;;8.18;87.98
73981;BME280;62348;51.412;5.436;2023-03-25T07:59:00;100169.06;;;8.23;87.26
73981;BME280;62348;51.412;5.436;2023-03-25T08:01:26;100183.91;;;8.30;86.83
73981;BME280;62348;51.412;5.436;2023-03-25T08:03:51;100175.88;;;8.40;86.69
73981;BME280;62348;51.412;5.436;2023-03-25T08:06:16;100191.28;;;8.45;86.17
73981;BME280;62348;51.412;5.436;2023-03-25T08:08:42;100185.34;;;8.43;86.17
73981;BME280;62348;51.412;5.436;2023-03-25T08:11:07;100190.75;;;8.43;87.03
73981;BME280;62348;51.412;5.436;2023-03-25T08:13:33;100195.56;;;8.41;88.39
73981;BME280;62348;51.412;5.436;2023-03-25T08:15:58;100187.44;;;8.36;89.08
73981;BME280;62348;51.412;5.436;2023-03-25T08:18:24;100188.25;;;8.31;90.23
73981;BME280;62348;51.412;5.436;2023-03-25T08:20:50;100199.00;;;8.31;90.93
73981;BME280;62348;51.412;5.436;2023-03-25T08:23:17;100190.38;;;8.29;91.30
73981;BME280;62348;51.412;5.436;2023-03-25T08:25:45;100200.06;;;8.30;91.30
73981;BME280;62348;51.412;5.436;2023-03-25T08:28:14;100196.56;;;8.30;91.48
73981;BME280;62348;51.412;5.436;2023-03-25T08:30:42;100206.53;;;8.29;91.56
73981;BME280;62348;51.412;5.436;2023-03-25T08:33:07;100203.31;;;8.27;91.90
73981;BME280;62348;51.412;5.436;2023-03-25T08:35:35;100207.06;;;8.26;91.16
73981;BME280;62348;51.412;5.436;2023-03-25T08:38:02;100201.16;;;8.29;92.00
73981;BME280;62348;51.412;5.436;2023-03-25T08:40:34;100215.69;;;8.28;91.47
73981;BME280;62348;51.412;5.436;2023-03-25T08:43:03;100211.88;;;8.24;92.36
73981;BME280;62348;51.412;5.436;2023-03-25T08:45:29;100208.94;;;8.26;92.81
73981;BME280;62348;51.412;5.436;2023-03-25T08:47:57;100208.94;;;8.26;93.14
73981;BME280;62348;51.412;5.436;2023-03-25T08:50:22;100210.28;;;8.28;92.27
73981;BME280;62348;51.412;5.436;2023-03-25T08:52:47;100209.53;;;8.33;92.69
73981;BME280;62348;51.412;5.436;2023-03-25T08:55:13;100219.50;;;8.37;93.08
73981;BME280;62348;51.412;5.436;2023-03-25T08:57:40;100218.97;;;8.35;93.08
73981;BME280;62348;51.412;5.436;2023-03-25T09:00:07;100216.53;;;8.34;93.85
73981;BME280;62348;51.412;5.436;2023-03-25T09:02:40;100227.00;;;8.30;94.57
73981;BME280;62348;51.412;5.436;2023-03-25T09:05:07;100225.34;;;8.24;94.70
73981;BME280;62348;51.412;5.436;2023-03-25T09:07:33;100224.00;;;8.21;95.61
73981;BME280;62348;51.412;5.436;2023-03-25T09:10:03;100230.69;;;8.19;96.03
73981;BME280;62348;51.412;5.436;2023-03-25T09:12:29;100230.97;;;8.17;95.99
73981;BME280;62348;51.412;5.436;2023-03-25T09:14:55;100223.16;;;8.16;96.41
73981;BME280;62348;51.412;5.436;2023-03-25T09:17:20;100215.88;;;8.16;96.04
73981;BME280;62348;51.412;5.436;2023-03-25T09:19:45;100222.63;;;8.19;96.85
73981;BME280;62348;51.412;5.436;2023-03-25T09:22:12;100225.84;;;8.16;96.52
73981;BME280;62348;51.412;5.436;2023-03-25T09:24:38;100226.91;;;8.15;97.05
73981;BME280;62348;51.412;5.436;2023-03-25T09:27:04;100222.63;;;8.14;97.13
73981;BME280;62348;51.412;5.436;2023-03-25T09:29:30;100225.81;;;8.11;96.90
73981;BME280;62348;51.412;5.436;2023-03-25T09:31:55;100224.72;;;8.12;97.04
73981;BME280;62348;51.412;5.436;2023-03-25T09:34:23;100237.94;;;8.13;96.83
73981;BME280;62348;51.412;5.436;2023-03-25T09:36:48;100225.31;;;8.14;96.47
73981;BME280;62348;51.412;5.436;2023-03-25T09:39:14;100230.69;;;8.14;96.59
73981;BME280;62348;51.412;5.436;2023-03-25T09:45:00;100239.78;;;8.08;94.19
73981;BME280;62348;51.412;5.436;2023-03-25T09:47:30;100246.44;;;7.95;95.05
73981;BME280;62348;51.412;5.436;2023-03-25T09:50:00;100259.06;;;7.89;96.24
73981;BME280;62348;51.412;5.436;2023-03-25T09:52:35;100254.22;;;7.91;97.38
73981;BME280;62348;51.412;5.436;2023-03-25T09:55:10;100251.25;;;7.93;97.60
73981;BME280;62348;51.412;5.436;2023-03-25T09:57:44;100264.75;;;7.98;97.87
73981;BME280;62348;51.412;5.436;2023-03-25T10:00:23;100262.91;;;8.04;97.63
73981;BME280;62348;51.412;5.436;2023-03-25T10:03:19;100239.03;;;8.12;98.90
73981;BME280;62348;51.412;5.436;2023-03-25T10:14:10;100258.78;;;8.76;100.00
73981;BME280;62348;51.412;5.436;2023-03-25T10:19:17;100248.38;;;9.00;97.90
73981;BME280;62348;51.412;5.436;2023-03-25T10:21:51;100243.03;;;9.15;97.20
73981;BME280;62348;51.412;5.436;2023-03-25T10:24:21;100249.00;;;9.28;95.59
73981;BME280;62348;51.412;5.436;2023-03-25T10:27:04;100253.88;;;9.41;95.42
73981;BME280;62348;51.412;5.436;2023-03-25T10:30:19;100226.91;;;9.51;94.60
73981;BME280;62348;51.412;5.436;2023-03-25T10:32:33;100242.84;;;9.53;93.20
73981;BME280;62348;51.412;5.436;2023-03-25T10:35:02;100243.13;;;9.56;92.75
73981;BME280;62348;51.412;5.436;2023-03-25T10:37:34;100247.16;;;9.64;91.47
73981;BME280;62348;51.412;5.436;2023-03-25T10:40:26;100241.47;;;9.71;92.59
73981;BME280;62348;51.412;5.436;2023-03-25T10:43:19;100234.75;;;9.78;92.58
73981;BME280;62348;51.412;5.436;2023-03-25T10:45:46;100239.63;;;9.87;91.69
73981;BME280;62348;51.412;5.436;2023-03-25T10:48:23;100240.41;;;10.03;92.21
73981;BME280;62348;51.412;5.436;2023-03-25T10:50:51;100223.63;;;10.11;88.69
73981;BME280;62348;51.412;5.436;2023-03-25T10:53:22;100238.78;;;10.17;88.03
73981;BME280;62348;51.412;5.436;2023-03-25T10:56:01;100246.88;;;10.32;87.59
73981;BME280;62348;51.412;5.436;2023-03-25T10:58:29;100236.56;;;10.45;84.22
73981;BME280;62348;51.412;5.436;2023-03-25T11:00:55;100246.53;;;10.54;85.88
73981;BME280;62348;51.412;5.436;2023-03-25T11:03:26;100230.84;;;10.57;83.80
73981;BME280;62348;51.412;5.436;2023-03-25T11:05:55;100242.50;;;10.57;82.33
73981;BME280;62348;51.412;5.436;2023-03-25T11:08:21;100239.25;;;10.55;79.29
73981;BME280;62348;51.412;5.436;2023-03-25T11:10:48;100268.72;;;10.51;76.90
73981;BME280;62348;51.412;5.436;2023-03-25T11:13:31;100271.97;;;10.48;75.44
73981;BME280;62348;51.412;5.436;2023-03-25T11:15:58;100261.47;;;10.42;74.31
73981;BME280;62348;51.412;5.436;2023-03-25T11:18:31;100248.16;;;10.55;74.96
73981;BME280;62348;51.412;5.436;2023-03-25T11:21:05;100253.03;;;10.59;73.83
73981;BME280;62348;51.412;5.436;2023-03-25T11:23:44;100265.47;;;10.60;75.71
73981;BME280;62348;51.412;5.436;2023-03-25T11:26:37;100285.72;;;10.62;77.33
73981;BME280;62348;51.412;5.436;2023-03-25T11:29:07;100275.16;;;10.66;77.12
73981;BME280;62348;51.412;5.436;2023-03-25T11:31:35;100261.09;;;10.69;78.12
73981;BME280;62348;51.412;5.436;2023-03-25T11:36:47;100265.97;;;10.67;79.68
73981;BME280;62348;51.412;5.436;2023-03-25T11:39:18;100268.94;;;10.70;81.12
73981;BME280;62348;51.412;5.436;2023-03-25T11:41:49;100264.34;;;10.76;79.47
73981;BME280;62348;51.412;5.436;2023-03-25T11:46:51;100254.03;;;10.83;79.66
73981;BME280;62348;51.412;5.436;2023-03-25T11:49:20;100263.50;;;10.81;78.52
73981;BME280;62348;51.412;5.436;2023-03-25T11:51:49;100262.16;;;10.78;77.03
73981;BME280;62348;51.412;5.436;2023-03-25T11:54:15;100274.88;;;10.72;76.76
73981;BME280;62348;51.412;5.436;2023-03-25T11:56:43;100282.19;;;10.67;76.38
73981;BME280;62348;51.412;5.436;2023-03-25T11:59:24;100274.09;;;10.67;77.28
73981;BME280;62348;51.412;5.436;2023-03-25T12:02:00;100272.97;;;10.73;77.15
73981;BME280;62348;51.412;5.436;2023-03-25T12:04:27;100267.84;;;10.77;74.92
73981;BME280;62348;51.412;5.436;2023-03-25T12:09:23;100291.13;;;10.62;74.31
73981;BME280;62348;51.412;5.436;2023-03-25T12:22:42;100316.03;;;10.23;81.79
73981;BME280;62348;51.412;5.436;2023-03-25T12:35:48;100308.81;;;9.09;85.78
73981;BME280;62348;51.412;5.436;2023-03-25T12:41:19;100281.72;;;8.78;87.93
73981;BME280;62348;51.412;5.436;2023-03-25T12:44:16;100267.72;;;8.76;91.41
73981;BME280;62348;51.412;5.436;2023-03-25T13:03:27;100298.41;;;9.44;92.13
73981;BME280;62348;51.412;5.436;2023-03-25T13:05:58;100296.25;;;9.35;91.34
73981;BME280;62348;51.412;5.436;2023-03-25T13:08:38;100287.03;;;9.31;91.63
73981;BME280;62348;51.412;5.436;2023-03-25T13:11:34;100299.16;;;9.29;90.42
73981;BME280;62348;51.412;5.436;2023-03-25T13:14:07;100300.47;;;9.16;91.82
73981;BME280;62348;51.412;5.436;2023-03-25T13:16:34;100311.53;;;9.09;91.86
73981;BME280;62348;51.412;5.436;2023-03-25T13:21:42;100304.97;;;8.90;90.66
73981;BME280;62348;51.412;5.436;2023-03-25T13:24:16;100288.75;;;8.85;90.31
73981;BME280;62348;51.412;5.436;2023-03-25T13:26:44;100289.81;;;8.84;90.69
73981;BME280;62348;51.412;5.436;2023-03-25T13:31:49;100280.75;;;9.00;92.27
73981;BME280;62348;51.412;5.436;2023-03-25T13:34:26;100283.47;;;9.10;93.20
73981;BME280;62348;51.412;5.436;2023-03-25T13:42:17;100295.66;;;9.28;93.32
73981;BME280;62348;51.412;5.436;2023-03-25T13:44:47;100316.44;;;9.28;94.26
73981;BME280;62348;51.412;5.436;2023-03-25T13:47:30;100330.75;;;9.28;93.88
73981;BME280;62348;51.412;5.436;2023-03-25T13:50:07;100327.75;;;9.25;93.84
73981;BME280;62348;51.412;5.436;2023-03-25T13:52:42;100305.59;;;9.12;91.83
73981;BME280;62348;51.412;5.436;2023-03-25T13:55:20;100309.84;;;8.98;91.07
73981;BME280;62348;51.412;5.436;2023-03-25T14:12:14;100301.63;;;8.67;92.98
73981;BME280;62348;51.412;5.436;2023-03-25T14:17:37;100297.63;;;8.75;93.66
73981;BME280;62348;51.412;5.436;2023-03-25T14:20:06;100311.94;;;8.81;93.76
73981;BME280;62348;51.412;5.436;2023-03-25T14:22:39;100298.75;;;8.89;94.92
73981;BME280;62348;51.412;5.436;2023-03-25T14:25:17;100309.34;;;9.01;94.79
73981;BME280;62348;51.412;5.436;2023-03-25T14:27:48;100306.66;;;9.11;95.90
73981;BME280;62348;51.412;5.436;2023-03-25T14:30:20;100310.22;;;9.22;96.30
73981;BME280;62348;51.412;5.436;2023-03-25T14:32:47;100313.19;;;9.26;95.03
73981;BME280;62348;51.412;5.436;2023-03-25T14:45:51;100317.72;;;9.10;91.13
73981;BME280;62348;51.412;5.436;2023-03-25T14:48:33;100317.97;;;9.08;91.56
73981;BME280;62348;51.412;5.436;2023-03-25T14:51:08;100305.84;;;9.06;92.27
73981;BME280;62348;51.412;5.436;2023-03-25T14:53:34;100311.22;;;9.06;93.20
73981;BME280;62348;51.412;5.436;2023-03-25T14:56:05;100310.97;;;9.07;91.75
73981;BME280;62348;51.412;5.436;2023-03-25T14:58:31;100308.56;;;9.11;92.55
73981;BME280;62348;51.412;5.436;2023-03-25T15:01:05;100319.63;;;9.19;93.28
73981;BME280;62348;51.412;5.436;2023-03-25T15:03:36;100316.72;;;9.26;92.49
73981;BME280;62348;51.412;5.436;2023-03-25T15:06:03;100315.91;;;9.31;93.03
73981;BME280;62348;51.412;5.436;2023-03-25T15:08:36;100315.66;;;9.32;92.39
73981;BME280;62348;51.412;5.436;2023-03-25T15:13:33;100317.31;;;9.49;92.66
73981;BME280;62348;51.412;5.436;2023-03-25T15:16:15;100316.50;;;9.53;92.21
73981;BME280;62348;51.412;5.436;2023-03-25T15:31:40;100324.94;;;9.93;86.67
73981;BME280;62348;51.412;5.436;2023-03-25T15:54:47;100327.13;;;10.37;79.62
73981;BME280;62348;51.412;5.436;2023-03-25T15:57:28;100332.53;;;10.37;80.17
73981;BME280;62348;51.412;5.436;2023-03-25T16:00:05;100342.81;;;10.40;78.49
73981;BME280;62348;51.412;5.436;2023-03-25T16:05:04;100341.19;;;10.44;78.56
73981;BME280;62348;51.412;5.436;2023-03-25T16:07:32;100357.66;;;10.48;77.89